createdAt,value
2022-09-16T00:01:31.142Z,84.16
2022-09-16T00:04:03.527Z,84.57
2022-09-16T00:06:35.378Z,84.83
2022-09-16T00:09:07.211Z,85.02
2022-09-16T00:11:39.040Z,84.97
2022-09-16T00:14:11.069Z,85.04
2022-09-16T00:16:43.219Z,85.20
2022-09-16T00:19:15.456Z,85.02
2022-09-16T00:21:49.850Z,85.21
2022-09-16T00:24:21.620Z,85.15
2022-09-16T00:26:53.763Z,85.15
2022-09-16T00:29:25.688Z,85.03
2022-09-16T00:31:57.528Z,84.94
2022-09-16T00:34:29.350Z,85.04
2022-09-16T00:37:03.370Z,85.06
2022-09-16T00:39:35.343Z,85.18
2022-09-16T00:42:07.564Z,85.11
2022-09-16T00:44:58.620Z,85.19
2022-09-16T00:47:36.405Z,85.46
2022-09-16T00:50:12.344Z,85.71
2022-09-16T00:52:44.533Z,85.73
2022-09-16T00:55:21.520Z,85.96
2022-09-16T00:57:55.684Z,85.99
2022-09-16T01:00:27.601Z,85.98
2022-09-16T01:02:59.933Z,86.27
2022-09-16T01:05:32.551Z,86.20
2022-09-16T01:08:05.520Z,86.38
2022-09-16T01:10:37.342Z,86.55
2022-09-16T01:13:12.814Z,86.49
2022-09-16T01:15:53.038Z,86.56
2022-09-16T01:18:32.651Z,86.74
2022-09-16T01:21:19.440Z,86.79
2022-09-16T01:24:35.526Z,87.05
2022-09-16T01:27:22.281Z,87.15
2022-09-16T01:30:17.665Z,87.10
2022-09-16T01:33:01.530Z,87.09
2022-09-16T01:35:50.097Z,87.12
2022-09-16T01:38:35.372Z,87.26
2022-09-16T01:41:15.482Z,87.34
2022-09-16T01:43:57.357Z,87.44
2022-09-16T01:46:38.423Z,87.34
2022-09-16T01:49:19.538Z,87.57
2022-09-16T01:52:02.041Z,87.88
2022-09-16T01:54:41.718Z,87.82
2022-09-16T01:57:17.919Z,87.81
2022-09-16T01:59:55.416Z,87.93
2022-09-16T02:02:33.181Z,87.92
2022-09-16T02:05:09.601Z,87.85
2022-09-16T02:07:44.898Z,88.05
2022-09-16T02:10:23.387Z,88.34
2022-09-16T02:13:04.203Z,88.35
2022-09-16T02:15:36.784Z,88.58
2022-09-16T02:18:13.893Z,88.50
2022-09-16T02:20:49.071Z,88.43
2022-09-16T02:23:24.797Z,88.55
2022-09-16T02:25:59.506Z,88.53
2022-09-16T02:28:35.769Z,88.48
2022-09-16T02:31:09.973Z,88.64
2022-09-16T02:33:46.199Z,88.55
2022-09-16T02:36:21.942Z,88.69
2022-09-16T02:38:58.499Z,88.83
2022-09-16T02:41:30.539Z,88.91
2022-09-16T02:44:02.734Z,88.95
2022-09-16T02:46:41.249Z,89.03
2022-09-16T02:49:19.664Z,89.01
2022-09-16T02:51:59.654Z,89.17
2022-09-16T02:54:39.640Z,89.19
2022-09-16T02:57:12.157Z,89.22
2022-09-16T02:59:44.425Z,89.24
2022-09-16T03:02:16.466Z,89.32
2022-09-16T03:04:48.591Z,89.29
2022-09-16T03:07:20.721Z,89.24
2022-09-16T03:09:53.359Z,89.18
2022-09-16T03:12:52.233Z,89.38
2022-09-16T03:15:56.876Z,89.62
2022-09-16T03:18:51.923Z,89.48
2022-09-16T03:21:33.263Z,89.38
2022-09-16T03:24:11.703Z,89.68
2022-09-16T03:26:54.201Z,89.62
2022-09-16T03:29:32.833Z,89.56
2022-09-16T03:32:15.484Z,89.60
2022-09-16T03:34:53.271Z,89.58
2022-09-16T03:37:32.299Z,89.77
2022-09-16T03:40:11.059Z,89.58
2022-09-16T03:42:44.650Z,89.67
2022-09-16T03:45:19.293Z,89.64
2022-09-16T03:47:53.769Z,89.75
2022-09-16T03:50:25.613Z,89.80
2022-09-16T03:52:57.463Z,89.81
2022-09-16T03:55:29.649Z,89.90
2022-09-16T03:58:01.495Z,89.88
2022-09-16T04:00:33.236Z,89.80
2022-09-16T04:03:05.248Z,89.72
2022-09-16T04:05:37.128Z,89.58
2022-09-16T04:08:09.059Z,89.68
2022-09-16T04:10:41.095Z,89.60
2022-09-16T04:13:12.976Z,89.69
2022-09-16T04:15:44.837Z,89.64
2022-09-16T04:18:16.731Z,89.66
2022-09-16T04:20:48.567Z,89.74
2022-09-16T04:23:20.572Z,89.80
2022-09-16T04:25:57.850Z,89.82
2022-09-16T04:28:31.469Z,89.90
2022-09-16T04:31:05.038Z,89.82
2022-09-16T04:33:38.206Z,89.88
2022-09-16T04:36:13.289Z,89.74
2022-09-16T04:38:47.576Z,89.73
2022-09-16T04:41:21.605Z,89.73
2022-09-16T04:43:56.574Z,89.65
2022-09-16T04:46:31.270Z,89.79
2022-09-16T04:49:03.896Z,89.91
2022-09-16T04:51:35.721Z,89.94
2022-09-16T04:54:07.937Z,89.83
2022-09-16T04:56:39.826Z,89.80
2022-09-16T04:59:12.635Z,89.84
2022-09-16T05:01:46.002Z,89.88
2022-09-16T05:04:17.982Z,89.94
2022-09-16T05:06:49.865Z,89.82
2022-09-16T05:09:22.913Z,89.80
2022-09-16T05:11:54.908Z,89.72
2022-09-16T05:14:26.730Z,89.75
2022-09-16T05:16:58.591Z,89.87
2022-09-16T05:19:30.599Z,89.77
2022-09-16T05:22:07.028Z,89.70
2022-09-16T05:24:38.913Z,89.81
2022-09-16T05:27:10.918Z,89.84
2022-09-16T05:29:43.212Z,89.85
2022-09-16T05:32:15.045Z,89.70
2022-09-16T05:34:47.264Z,89.76
2022-09-16T05:37:19.227Z,89.67
2022-09-16T05:39:51.050Z,89.70
2022-09-16T05:42:23.075Z,89.64
2022-09-16T05:44:55.084Z,89.60
2022-09-16T05:47:27.570Z,89.55
2022-09-16T05:49:59.426Z,89.42
2022-09-16T05:52:31.163Z,89.55
2022-09-16T05:55:06.477Z,89.27
2022-09-16T05:57:38.358Z,89.25
2022-09-16T06:00:14.579Z,89.26
2022-09-16T06:02:48.315Z,89.15
2022-09-16T06:05:20.402Z,89.12
2022-09-16T06:07:52.214Z,89.05
2022-09-16T06:10:24.048Z,88.95
2022-09-16T06:12:55.981Z,88.84
2022-09-16T06:15:27.809Z,88.84
2022-09-16T06:18:04.184Z,88.52
2022-09-16T06:20:39.424Z,88.42
2022-09-16T06:23:11.552Z,88.30
2022-09-16T06:25:44.100Z,88.13
2022-09-16T06:28:16.706Z,88.21
2022-09-16T06:30:48.550Z,88.05
2022-09-16T06:33:20.352Z,88.02
2022-09-16T06:35:53.601Z,87.79
2022-09-16T06:38:25.774Z,87.68
2022-09-16T06:41:01.034Z,87.56
2022-09-16T06:43:33.908Z,87.31
2022-09-16T06:46:10.392Z,87.11
2022-09-16T06:48:43.884Z,86.94
2022-09-16T06:51:17.820Z,86.63
2022-09-16T06:53:50.754Z,86.48
2022-09-16T06:56:23.681Z,86.32
2022-09-16T06:58:57.398Z,86.25
2022-09-16T07:01:31.692Z,85.82
2022-09-16T07:04:06.589Z,85.41
2022-09-16T07:07:07.469Z,84.75
2022-09-16T07:09:30.938Z,84.70
2022-09-16T07:12:03.703Z,84.53
2022-09-16T07:14:35.681Z,83.80
2022-09-16T07:17:09.139Z,83.22
2022-09-16T07:19:42.475Z,83.03
2022-09-16T07:22:14.602Z,82.80
2022-09-16T07:24:47.015Z,82.89
2022-09-16T07:27:18.972Z,82.64
2022-09-16T07:29:51.254Z,82.22
2022-09-16T07:32:23.313Z,81.66
2022-09-16T07:34:55.566Z,81.74
2022-09-16T07:37:27.447Z,81.51
2022-09-16T07:39:59.619Z,80.65
2022-09-16T07:42:32.937Z,79.09
2022-09-16T07:45:04.919Z,79.84
2022-09-16T07:47:36.995Z,79.84
2022-09-16T07:50:10.759Z,79.62
2022-09-16T07:52:42.612Z,79.51
2022-09-16T07:55:16.073Z,78.85
2022-09-16T07:57:47.980Z,78.86
2022-09-16T08:00:20.708Z,78.28
2022-09-16T08:02:57.123Z,78.36
2022-09-16T08:05:29.175Z,77.22
2022-09-16T08:08:00.957Z,75.97
2022-09-16T08:10:32.901Z,74.47
2022-09-16T08:13:05.937Z,74.52
2022-09-16T08:15:37.870Z,74.82
2022-09-16T08:18:09.694Z,74.52
2022-09-16T08:20:41.527Z,74.34
2022-09-16T08:23:14.554Z,74.42
2022-09-16T08:25:47.321Z,74.48
2022-09-16T08:28:21.278Z,73.78
2022-09-16T08:30:53.319Z,73.83
2022-09-16T08:33:26.114Z,73.50
2022-09-16T08:36:06.307Z,73.80
2022-09-16T08:38:38.416Z,72.79
2022-09-16T08:41:25.040Z,72.49
2022-09-16T08:44:05.678Z,72.06
2022-09-16T08:46:46.845Z,71.05
2022-09-16T08:49:28.416Z,72.50
2022-09-16T08:52:03.379Z,72.36
2022-09-16T08:54:40.218Z,70.85
2022-09-16T08:57:20.695Z,70.59
2022-09-16T08:59:55.693Z,69.77
2022-09-16T09:05:26.657Z,69.89
2022-09-16T09:08:13.525Z,70.39
2022-09-16T09:10:53.724Z,69.09
2022-09-16T09:13:39.942Z,68.81
2022-09-16T09:16:22.778Z,68.48
2022-09-16T09:19:05.138Z,68.53
2022-09-16T09:21:46.870Z,69.17
2022-09-16T09:24:45.161Z,69.62
2022-09-16T09:27:27.713Z,69.59
2022-09-16T09:30:09.836Z,69.02
2022-09-16T09:33:03.702Z,68.11
2022-09-16T09:35:50.427Z,67.61
2022-09-16T09:39:04.410Z,67.33
2022-09-16T09:41:41.141Z,67.44
2022-09-16T09:44:29.678Z,67.18
2022-09-16T09:47:06.482Z,67.47
2022-09-16T09:49:42.336Z,67.19
2022-09-16T09:52:20.928Z,66.78
2022-09-16T09:54:54.281Z,66.17
2022-09-16T09:57:33.452Z,66.29
2022-09-16T10:00:13.321Z,66.10
2022-09-16T10:02:49.922Z,66.42
2022-09-16T10:05:26.680Z,66.28
2022-09-16T10:08:16.407Z,65.81
2022-09-16T10:10:52.773Z,66.48
2022-09-16T10:13:26.801Z,66.63
2022-09-16T10:16:11.431Z,66.30
2022-09-16T10:18:43.563Z,65.65
2022-09-16T10:21:18.209Z,65.29
2022-09-16T10:23:58.570Z,65.06
2022-09-16T10:26:31.213Z,63.64
2022-09-16T10:29:12.827Z,63.68
2022-09-16T10:31:45.263Z,62.89
2022-09-16T10:34:23.917Z,62.51
2022-09-16T10:37:06.101Z,61.03
2022-09-16T10:39:38.957Z,61.39
2022-09-16T10:42:20.945Z,61.34
2022-09-16T10:44:55.082Z,61.24
2022-09-16T10:47:30.530Z,62.38
2022-09-16T10:50:05.357Z,61.78
2022-09-16T10:52:45.369Z,61.68
2022-09-16T10:55:29.607Z,60.48
2022-09-16T10:58:15.841Z,60.22
2022-09-16T11:00:58.636Z,59.66
2022-09-16T11:04:01.457Z,58.66
2022-09-16T11:06:45.306Z,57.97
2022-09-16T11:09:27.317Z,59.51
2022-09-16T11:12:27.898Z,59.34
2022-09-16T11:15:10.136Z,59.76
2022-09-16T11:17:58.273Z,58.89
2022-09-16T11:20:52.045Z,58.88
2022-09-16T11:23:42.412Z,58.87
2022-09-16T11:26:24.739Z,58.49
2022-09-16T11:29:15.539Z,59.06
2022-09-16T11:32:01.421Z,58.06
2022-09-16T11:34:49.668Z,58.20
2022-09-16T11:37:27.143Z,58.08
2022-09-16T11:40:16.826Z,58.64
2022-09-16T11:42:56.530Z,58.63
2022-09-16T11:45:43.755Z,58.27
2022-09-16T11:48:32.870Z,58.22
2022-09-16T11:51:12.967Z,57.59
2022-09-16T11:53:59.492Z,57.51
2022-09-16T11:56:38.989Z,57.69
2022-09-16T11:59:19.001Z,57.47
2022-09-16T12:01:56.148Z,57.84
2022-09-16T12:04:34.983Z,57.41
2022-09-16T12:07:19.089Z,57.78
2022-09-16T12:09:57.043Z,57.73
2022-09-16T12:12:38.667Z,58.10
2022-09-16T12:15:22.574Z,58.68
2022-09-16T12:17:57.817Z,57.64
2022-09-16T12:20:34.524Z,57.27
2022-09-16T12:23:18.674Z,56.76
2022-09-16T12:26:06.538Z,56.56
2022-09-16T12:28:46.156Z,55.56
2022-09-16T12:31:33.897Z,56.09
2022-09-16T12:34:13.219Z,55.99
2022-09-16T12:36:50.935Z,55.85
2022-09-16T12:39:22.840Z,56.14
2022-09-16T12:42:25.609Z,56.42
2022-09-16T12:45:21.846Z,54.83
2022-09-16T12:48:12.506Z,55.29
2022-09-16T12:51:01.471Z,55.03
2022-09-16T12:54:09.667Z,55.18
2022-09-16T12:56:56.190Z,53.97
2022-09-16T12:59:52.431Z,54.44
2022-09-16T13:02:29.863Z,54.81
2022-09-16T13:05:14.629Z,55.50
2022-09-16T13:07:54.403Z,56.01
2022-09-16T13:10:54.032Z,56.49
2022-09-16T13:13:31.261Z,57.22
2022-09-16T13:16:06.506Z,56.48
2022-09-16T13:18:47.637Z,55.48
2022-09-16T13:21:28.168Z,56.53
2022-09-16T13:24:05.598Z,56.63
2022-09-16T13:26:45.448Z,56.52
2022-09-16T13:29:44.898Z,56.54
2022-09-16T13:32:39.770Z,56.44
2022-09-16T13:35:37.796Z,57.30
2022-09-16T13:38:39.776Z,57.37
2022-09-16T13:41:14.392Z,56.61
2022-09-16T13:43:55.938Z,55.59
2022-09-16T13:46:37.986Z,54.34
2022-09-16T13:49:23.916Z,54.27
2022-09-16T13:51:56.118Z,54.38
2022-09-16T13:54:47.986Z,54.13
2022-09-16T13:57:43.364Z,53.96
2022-09-16T14:00:19.874Z,53.76
2022-09-16T14:03:18.131Z,52.39
2022-09-16T14:06:11.430Z,52.32
2022-09-16T14:08:53.941Z,53.14
2022-09-16T14:11:34.390Z,52.41
2022-09-16T14:14:19.762Z,51.12
2022-09-16T14:17:06.614Z,50.43
2022-09-16T14:19:41.267Z,50.78
2022-09-16T14:22:21.712Z,50.88
2022-09-16T14:25:05.777Z,51.27
2022-09-16T14:27:40.207Z,51.70
2022-09-16T14:30:19.005Z,51.58
2022-09-16T14:32:51.556Z,52.27
2022-09-16T14:35:27.226Z,52.72
2022-09-16T14:40:49.798Z,53.07
2022-09-16T14:43:24.138Z,52.98
2022-09-16T14:46:01.486Z,53.14
2022-09-16T14:48:39.882Z,53.51
2022-09-16T14:51:21.867Z,53.54
2022-09-16T14:54:15.560Z,53.56
2022-09-16T14:56:57.870Z,53.20
2022-09-16T14:59:32.305Z,53.26
2022-09-16T15:02:09.471Z,53.56
2022-09-16T15:04:45.487Z,53.71
2022-09-16T15:07:25.923Z,54.13
2022-09-16T15:10:02.312Z,54.88
2022-09-16T15:12:36.976Z,55.08
2022-09-16T15:15:21.000Z,54.73
2022-09-16T15:17:58.623Z,55.24
2022-09-16T15:20:33.902Z,55.13
2022-09-16T15:23:12.253Z,54.90
2022-09-16T15:25:55.247Z,54.87
2022-09-16T15:28:27.424Z,53.54
2022-09-16T15:30:59.630Z,52.72
2022-09-16T15:33:42.736Z,52.57
2022-09-16T15:36:36.244Z,52.72
2022-09-16T15:39:23.831Z,53.22
2022-09-16T15:42:12.244Z,53.54
2022-09-16T15:44:50.126Z,53.23
2022-09-16T15:47:25.685Z,53.60
2022-09-16T15:50:04.146Z,53.80
2022-09-16T15:52:51.335Z,54.13
2022-09-16T15:55:36.427Z,53.73
2022-09-16T15:58:14.700Z,53.87
2022-09-16T16:01:07.028Z,54.08
2022-09-16T16:03:53.817Z,54.64
2022-09-16T16:06:47.480Z,55.00
2022-09-16T16:09:48.975Z,55.51
2022-09-16T16:12:21.844Z,55.70
2022-09-16T16:14:55.164Z,56.13
2022-09-16T16:17:28.631Z,56.10
2022-09-16T16:20:00.902Z,56.46
2022-09-16T16:22:33.382Z,56.47
2022-09-16T16:25:05.512Z,56.42
2022-09-16T16:27:37.719Z,56.97
2022-09-16T16:30:11.171Z,57.03
2022-09-16T16:32:43.752Z,57.19
2022-09-16T16:35:16.021Z,57.25
2022-09-16T16:37:48.152Z,57.70
2022-09-16T16:40:20.616Z,57.77
2022-09-16T16:42:52.498Z,57.94
2022-09-16T16:45:24.649Z,58.06
2022-09-16T16:47:56.937Z,58.38
2022-09-16T16:50:28.868Z,58.51
2022-09-16T16:53:00.919Z,58.74
2022-09-16T16:55:34.171Z,58.84
2022-09-16T16:58:06.012Z,58.97
2022-09-16T17:00:38.038Z,59.15
2022-09-16T17:03:09.942Z,59.24
2022-09-16T17:05:42.313Z,59.36
2022-09-16T17:08:14.190Z,59.61
2022-09-16T17:10:46.949Z,59.69
2022-09-16T17:13:19.328Z,59.95
2022-09-16T17:15:53.488Z,60.17
2022-09-16T17:18:25.662Z,60.28
2022-09-16T17:21:04.181Z,60.57
2022-09-16T17:23:36.534Z,60.58
2022-09-16T17:26:10.203Z,60.89
2022-09-16T17:28:44.887Z,61.17
2022-09-16T17:31:20.225Z,61.60
2022-09-16T17:33:53.950Z,61.78
2022-09-16T17:36:27.312Z,61.93
2022-09-16T17:39:00.957Z,62.29
2022-09-16T17:41:33.723Z,62.54
2022-09-16T17:44:08.670Z,62.93
2022-09-16T17:46:41.508Z,63.18
2022-09-16T17:49:18.326Z,63.35
2022-09-16T17:51:51.364Z,63.68
2022-09-16T17:54:23.967Z,63.90
2022-09-16T17:56:55.931Z,63.86
2022-09-16T17:59:27.769Z,64.06
2022-09-16T18:01:59.743Z,64.37
2022-09-16T18:04:33.098Z,64.61
2022-09-16T18:07:05.059Z,64.80
2022-09-16T18:09:37.300Z,64.87
2022-09-16T18:12:17.249Z,64.82
2022-09-16T18:14:49.739Z,64.89
2022-09-16T18:17:22.175Z,64.82
2022-09-16T18:19:55.168Z,64.88
2022-09-16T18:22:27.375Z,64.73
2022-09-16T18:24:59.356Z,64.91
2022-09-16T18:27:31.302Z,65.08
2022-09-16T18:30:03.378Z,65.03
2022-09-16T18:32:35.728Z,65.17
2022-09-16T18:35:09.115Z,65.25
2022-09-16T18:37:41.157Z,65.15
2022-09-16T18:40:13.840Z,65.51
2022-09-16T18:42:45.836Z,65.48
2022-09-16T18:45:17.937Z,65.80
2022-09-16T18:47:49.861Z,65.82
2022-09-16T18:50:22.130Z,66.02
2022-09-16T18:52:57.243Z,66.24
2022-09-16T18:55:29.280Z,66.43
2022-09-16T18:58:02.515Z,66.38
2022-09-16T19:00:35.488Z,66.65
2022-09-16T19:03:07.943Z,66.60
2022-09-16T19:05:40.172Z,66.55
2022-09-16T19:08:14.642Z,66.76
2022-09-16T19:10:46.836Z,66.96
2022-09-16T19:13:22.111Z,67.23
2022-09-16T19:15:59.048Z,67.31
2022-09-16T19:18:31.276Z,67.80
2022-09-16T19:21:06.054Z,67.99
2022-09-16T19:23:38.255Z,68.14
2022-09-16T19:26:10.383Z,68.12
2022-09-16T19:28:42.856Z,68.15
2022-09-16T19:31:15.822Z,68.73
2022-09-16T19:33:47.758Z,68.62
2022-09-16T19:36:22.258Z,68.75
2022-09-16T19:42:13.977Z,69.53
2022-09-16T19:44:45.791Z,69.72
2022-09-16T19:47:20.630Z,69.76
2022-09-16T19:49:52.804Z,69.95
2022-09-16T19:52:25.218Z,70.17
2022-09-16T19:54:57.726Z,70.30
2022-09-16T19:57:29.618Z,70.23
2022-09-16T20:00:01.866Z,70.45
2022-09-16T20:02:46.654Z,70.64
2022-09-16T20:05:21.238Z,70.70
2022-09-16T20:07:53.310Z,70.60
2022-09-16T20:10:25.846Z,70.73
2022-09-16T20:12:59.467Z,70.97
2022-09-16T20:15:31.519Z,70.82
2022-09-16T20:18:03.746Z,70.83
2022-09-16T20:20:36.112Z,70.88
2022-09-16T20:26:12.307Z,71.19
2022-09-16T20:28:45.175Z,71.33
2022-09-16T20:31:18.337Z,71.58
2022-09-16T20:33:51.793Z,71.64
2022-09-16T20:36:26.010Z,71.87
2022-09-16T20:38:59.677Z,71.86
2022-09-16T20:41:33.667Z,71.91
2022-09-16T20:44:07.032Z,72.00
2022-09-16T20:46:39.772Z,72.41
2022-09-16T20:49:15.984Z,72.39
2022-09-16T20:51:48.128Z,72.39
2022-09-16T20:54:20.436Z,72.60
2022-09-16T20:56:52.305Z,72.59
2022-09-16T20:59:24.103Z,72.96
2022-09-16T21:01:57.545Z,73.07
2022-09-16T21:04:29.550Z,73.24
2022-09-16T21:07:01.377Z,73.24
2022-09-16T21:09:33.317Z,73.44
2022-09-16T21:12:07.428Z,73.44
2022-09-16T21:14:40.531Z,73.47
2022-09-16T21:17:12.390Z,73.78
2022-09-16T21:19:44.269Z,74.03
2022-09-16T21:22:16.180Z,74.03
2022-09-16T21:24:49.213Z,74.20
2022-09-16T21:27:21.072Z,74.37
2022-09-16T21:29:52.969Z,74.45
2022-09-16T21:32:25.059Z,74.70
2022-09-16T21:34:58.071Z,74.60
2022-09-16T21:37:29.983Z,74.88
2022-09-16T21:40:02.065Z,74.98
2022-09-16T21:42:35.240Z,74.78
2022-09-16T21:45:08.747Z,75.08
2022-09-16T21:47:40.632Z,74.97
2022-09-16T21:50:12.849Z,74.91
2022-09-16T21:52:45.226Z,74.92
2022-09-16T21:55:17.260Z,74.93
2022-09-16T21:57:50.788Z,75.03
2022-09-16T22:00:22.724Z,74.90
2022-09-16T22:02:56.669Z,74.99
2022-09-16T22:05:28.750Z,75.04
2022-09-16T22:08:01.703Z,75.19
2022-09-16T22:10:33.628Z,75.46
2022-09-16T22:13:05.476Z,75.67
2022-09-16T22:15:37.363Z,75.91
2022-09-16T22:18:09.214Z,75.98
2022-09-16T22:20:41.004Z,75.98
2022-09-16T22:23:13.000Z,76.25
2022-09-16T22:25:45.379Z,76.42
2022-09-16T22:28:17.550Z,76.54
2022-09-16T22:30:51.111Z,76.88
2022-09-16T22:33:22.963Z,76.98
2022-09-16T22:35:54.785Z,77.07
2022-09-16T22:38:26.920Z,77.38
2022-09-16T22:41:02.966Z,77.57
2022-09-16T22:43:39.051Z,77.64
2022-09-16T22:46:12.585Z,77.81
2022-09-16T22:48:45.065Z,77.96
2022-09-16T22:51:18.665Z,78.18
2022-09-16T22:53:50.870Z,78.47
2022-09-16T22:56:25.177Z,78.75
2022-09-16T22:58:58.192Z,79.00
2022-09-16T23:01:32.953Z,79.18
2022-09-16T23:04:06.374Z,79.44
2022-09-16T23:06:39.609Z,79.65
2022-09-16T23:09:13.580Z,79.79
2022-09-16T23:11:46.625Z,80.02
2022-09-16T23:14:26.359Z,80.11
2022-09-16T23:16:58.227Z,80.23
2022-09-16T23:19:30.058Z,80.25
2022-09-16T23:22:01.827Z,80.31
2022-09-16T23:24:33.643Z,80.30
2022-09-16T23:27:06.153Z,80.25
2022-09-16T23:29:38.031Z,80.21
2022-09-16T23:32:10.006Z,80.34
2022-09-16T23:34:42.349Z,80.22
2022-09-16T23:37:14.165Z,80.15
2022-09-16T23:39:45.948Z,80.30
2022-09-16T23:42:18.079Z,80.27
2022-09-16T23:44:50.053Z,80.24
2022-09-16T23:47:22.817Z,80.27
2022-09-16T23:49:54.582Z,80.47
2022-09-16T23:52:26.570Z,80.46
2022-09-16T23:54:58.300Z,80.46
2022-09-16T23:57:30.105Z,80.46
